createdAt,value
2022-12-03T00:03:02.949Z,55.10
2022-12-03T00:08:05.002Z,50.87
2022-12-03T00:13:06.718Z,49.67
2022-12-03T00:18:08.416Z,50.43
2022-12-03T00:23:10.091Z,53.70
2022-12-03T00:28:11.805Z,57.05
2022-12-03T00:33:13.490Z,51.28
2022-12-03T00:38:15.514Z,53.20
2022-12-03T00:43:17.304Z,54.83
2022-12-03T00:48:19.119Z,51.73
2022-12-03T00:53:20.821Z,57.63
2022-12-03T00:58:22.455Z,50.70
2022-12-03T01:03:24.285Z,56.90
2022-12-03T01:08:26.035Z,53.30
2022-12-03T01:13:27.808Z,52.05
2022-12-03T01:18:29.486Z,52.50
2022-12-03T01:23:31.169Z,51.67
2022-12-03T01:28:32.950Z,49.95
2022-12-03T01:33:34.612Z,50.53
2022-12-03T01:38:36.352Z,50.67
2022-12-03T01:43:38.366Z,54.40
2022-12-03T01:48:40.280Z,53.00
2022-12-03T01:53:43.181Z,52.43
2022-12-03T01:58:46.329Z,56.05
2022-12-03T02:03:48.064Z,54.55
2022-12-03T02:08:49.916Z,57.10
2022-12-03T02:13:55.493Z,56.43
2022-12-03T02:18:58.828Z,55.55
2022-12-03T02:24:19.334Z,53.07
2022-12-03T02:29:22.111Z,58.92
2022-12-03T02:34:43.124Z,60.85
2022-12-03T02:39:50.812Z,57.38
2022-12-03T02:44:52.940Z,58.08
2022-12-03T02:49:55.787Z,56.65
2022-12-03T02:54:58.233Z,64.88
2022-12-03T03:00:00.082Z,60.47
2022-12-03T03:05:02.433Z,67.47
2022-12-03T03:10:06.181Z,68.90
2022-12-03T03:15:09.603Z,67.22
2022-12-03T03:20:12.474Z,68.18
2022-12-03T03:25:18.542Z,73.25
2022-12-03T03:30:20.348Z,72.53
2022-12-03T03:35:24.416Z,74.20
2022-12-03T03:40:26.900Z,70.65
2022-12-03T03:45:29.797Z,73.03
2022-12-03T03:50:32.524Z,70.57
2022-12-03T03:55:34.616Z,66.97
2022-12-03T04:00:36.672Z,71.43
2022-12-03T04:05:38.649Z,69.82
2022-12-03T04:10:58.937Z,79.37
2022-12-03T04:16:00.711Z,71.60
2022-12-03T04:21:20.981Z,66.57
2022-12-03T04:26:41.275Z,73.25
2022-12-03T04:32:03.293Z,74.85
2022-12-03T04:37:05.447Z,80.63
2022-12-03T04:42:07.611Z,76.43
2022-12-03T04:47:12.524Z,81.20
2022-12-03T04:52:16.572Z,73.28
2022-12-03T04:57:18.329Z,73.82
2022-12-03T05:02:20.116Z,74.50
2022-12-03T05:07:21.851Z,74.63
2022-12-03T05:12:23.518Z,70.18
2022-12-03T05:17:25.420Z,75.90
2022-12-03T05:22:27.113Z,76.35
2022-12-03T05:27:28.835Z,75.55
2022-12-03T05:32:30.569Z,68.90
2022-12-03T05:37:32.258Z,69.00
2022-12-03T05:42:52.685Z,69.28
2022-12-03T05:47:56.036Z,69.07
2022-12-03T05:52:58.375Z,60.55
2022-12-03T05:58:00.175Z,58.45
2022-12-03T06:03:02.037Z,56.87
2022-12-03T06:08:04.039Z,63.63
2022-12-03T06:13:05.845Z,65.27
2022-12-03T06:18:07.557Z,59.85
2022-12-03T06:23:24.403Z,63.33
2022-12-03T06:28:26.089Z,64.17
2022-12-03T06:33:27.819Z,53.80
2022-12-03T06:38:29.499Z,46.42
2022-12-03T06:43:31.315Z,49.85
2022-12-03T06:48:32.954Z,51.40
2022-12-03T06:53:34.736Z,51.13
2022-12-03T06:58:36.458Z,47.33
2022-12-03T07:03:38.264Z,45.92
2022-12-03T07:08:40.292Z,45.80
2022-12-03T07:13:41.947Z,43.97
2022-12-03T07:18:43.676Z,37.55
2022-12-03T07:23:45.347Z,41.47
2022-12-03T07:28:48.262Z,35.90
2022-12-03T07:33:50.100Z,37.10
2022-12-03T07:38:52.020Z,34.73
2022-12-03T07:43:53.747Z,37.50
2022-12-03T07:48:55.566Z,42.83
2022-12-03T07:53:57.251Z,42.25
2022-12-03T07:58:58.917Z,46.55
2022-12-03T08:04:00.644Z,42.10
2022-12-03T08:09:02.416Z,40.10
2022-12-03T08:14:14.938Z,40.47
2022-12-03T08:19:18.076Z,43.97
2022-12-03T08:24:21.352Z,45.33
2022-12-03T08:29:24.521Z,47.08
2022-12-03T08:34:28.237Z,47.78
2022-12-03T08:39:37.618Z,45.50
2022-12-03T08:44:41.121Z,58.17
2022-12-03T08:49:48.881Z,46.00
2022-12-03T08:54:53.716Z,50.60
2022-12-03T09:00:23.409Z,47.35
2022-12-03T09:05:34.181Z,56.47
2022-12-03T09:10:36.461Z,56.97
2022-12-03T09:15:38.268Z,51.55
2022-12-03T09:20:41.248Z,47.23
2022-12-03T09:25:42.972Z,48.50
2022-12-03T09:30:44.692Z,53.60
2022-12-03T09:35:46.383Z,54.10
2022-12-03T09:40:48.142Z,48.07
2022-12-03T09:45:50.156Z,48.95
2022-12-03T09:50:52.536Z,43.72
2022-12-03T09:55:57.872Z,47.53
2022-12-03T10:00:59.572Z,41.33
2022-12-03T10:06:01.260Z,47.30
2022-12-03T10:11:03.517Z,47.95
2022-12-03T10:16:08.910Z,49.10
2022-12-03T10:21:37.444Z,50.25
2022-12-03T10:26:43.440Z,49.65
2022-12-03T10:31:45.721Z,47.67
2022-12-03T10:36:47.578Z,44.25
2022-12-03T10:41:49.322Z,53.08
2022-12-03T10:47:11.591Z,54.27
2022-12-03T10:52:25.627Z,54.08
2022-12-03T10:57:28.171Z,54.63
2022-12-03T11:02:29.881Z,53.13
2022-12-03T11:07:32.146Z,50.53
2022-12-03T11:12:35.567Z,52.10
2022-12-03T11:17:52.912Z,49.38
2022-12-03T11:22:56.340Z,56.13
2022-12-03T11:28:10.190Z,46.65
2022-12-03T11:33:32.680Z,40.63
2022-12-03T11:38:37.520Z,44.08
2022-12-03T11:43:57.296Z,44.95
2022-12-03T11:49:00.030Z,46.22
2022-12-03T11:54:01.950Z,47.83
2022-12-03T11:59:11.767Z,45.72
2022-12-03T12:04:29.190Z,46.70
2022-12-03T12:09:53.222Z,51.17
2022-12-03T12:14:55.872Z,53.53
2022-12-03T12:20:27.083Z,47.45
2022-12-03T12:25:40.903Z,49.92
2022-12-03T12:30:42.914Z,51.90
2022-12-03T12:35:44.690Z,50.72
2022-12-03T12:40:49.301Z,49.50
2022-12-03T12:45:56.788Z,49.65
2022-12-03T12:51:01.418Z,54.78
2022-12-03T12:56:14.083Z,52.47
2022-12-03T13:01:28.524Z,52.58
2022-12-03T13:06:32.102Z,48.35
2022-12-03T13:11:39.513Z,51.50
2022-12-03T13:16:41.837Z,49.38
2022-12-03T13:21:44.735Z,50.90
2022-12-03T13:26:46.573Z,47.05
2022-12-03T13:32:01.241Z,67.67
2022-12-03T13:37:12.218Z,49.50
2022-12-03T13:42:39.141Z,53.20
2022-12-03T13:47:43.329Z,53.58
2022-12-03T13:52:45.108Z,53.72
2022-12-03T13:57:46.876Z,54.27
2022-12-03T14:02:49.138Z,49.30
2022-12-03T14:07:51.058Z,52.37
2022-12-03T14:12:52.833Z,49.73
2022-12-03T14:17:54.602Z,49.63
2022-12-03T14:22:59.304Z,51.13
2022-12-03T14:28:01.449Z,51.83
2022-12-03T14:33:04.891Z,54.70
2022-12-03T14:38:06.651Z,51.67
2022-12-03T14:43:08.294Z,48.30
2022-12-03T14:48:10.010Z,49.58
2022-12-03T14:53:11.805Z,50.97
2022-12-03T14:58:13.613Z,52.00
2022-12-03T15:03:15.298Z,45.37
2022-12-03T15:08:17.389Z,48.42
2022-12-03T15:13:19.365Z,50.17
2022-12-03T15:18:21.061Z,50.87
2022-12-03T15:23:22.850Z,52.95
2022-12-03T15:28:24.493Z,56.03
2022-12-03T15:33:26.253Z,50.43
2022-12-03T15:38:27.973Z,48.20
2022-12-03T15:43:29.596Z,50.38
2022-12-03T15:48:31.518Z,51.33
2022-12-03T15:53:33.268Z,51.07
2022-12-03T15:58:35.165Z,47.73
2022-12-03T16:03:37.082Z,53.37
2022-12-03T16:08:38.792Z,56.53
2022-12-03T16:13:40.557Z,51.70
2022-12-03T16:18:42.244Z,57.13
2022-12-03T16:23:43.962Z,49.60
2022-12-03T16:28:45.591Z,47.85
2022-12-03T16:33:47.949Z,46.47
2022-12-03T16:38:49.825Z,46.45
2022-12-03T16:43:51.740Z,49.83
2022-12-03T16:48:55.564Z,43.10
2022-12-03T16:53:59.543Z,47.15
2022-12-03T16:59:01.265Z,43.70
2022-12-03T17:04:02.949Z,45.15
2022-12-03T17:09:04.721Z,47.17
2022-12-03T17:14:06.398Z,49.10
2022-12-03T17:19:08.431Z,41.93
2022-12-03T17:24:10.243Z,42.80
2022-12-03T17:29:12.157Z,47.50
2022-12-03T17:34:13.832Z,46.22
2022-12-03T17:39:15.416Z,52.50
2022-12-03T17:44:21.036Z,49.05
2022-12-03T17:49:28.301Z,56.05
2022-12-03T17:54:49.368Z,48.13
2022-12-03T17:59:54.790Z,56.63
2022-12-03T18:04:56.757Z,46.70
2022-12-03T18:09:58.521Z,48.40
2022-12-03T18:15:00.251Z,49.60
2022-12-03T18:20:02.179Z,47.33
2022-12-03T18:25:04.839Z,45.20
2022-12-03T18:30:07.098Z,44.53
2022-12-03T18:35:09.168Z,45.53
2022-12-03T18:40:23.819Z,45.03
2022-12-03T18:45:25.530Z,42.95
2022-12-03T18:50:27.220Z,47.13
2022-12-03T18:55:33.640Z,45.03
2022-12-03T19:00:35.850Z,45.70
2022-12-03T19:05:37.805Z,49.13
2022-12-03T19:10:39.699Z,47.10
2022-12-03T19:15:41.405Z,51.10
2022-12-03T19:20:43.179Z,50.80
2022-12-03T19:26:04.496Z,48.07
2022-12-03T19:31:10.375Z,48.47
2022-12-03T19:36:29.601Z,52.97
2022-12-03T19:41:31.440Z,56.53
2022-12-03T19:46:33.170Z,55.23
2022-12-03T19:51:35.816Z,58.07
2022-12-03T19:56:38.249Z,58.03
2022-12-03T20:01:40.825Z,55.20
2022-12-03T20:06:42.730Z,54.92
2022-12-03T20:11:45.805Z,54.43
2022-12-03T20:16:48.390Z,57.47
2022-12-03T20:21:50.109Z,54.80
2022-12-03T20:26:51.901Z,51.63
2022-12-03T20:31:53.669Z,58.83
2022-12-03T20:36:55.548Z,57.80
2022-12-03T20:41:57.395Z,53.93
2022-12-03T20:46:59.100Z,47.30
2022-12-03T20:52:04.237Z,51.60
2022-12-03T20:57:06.409Z,53.65
2022-12-03T21:02:09.536Z,47.42
2022-12-03T21:07:11.337Z,50.33
2022-12-03T21:12:13.033Z,53.20
2022-12-03T21:17:14.827Z,50.13
2022-12-03T21:22:16.548Z,50.10
2022-12-03T21:27:21.856Z,48.20
2022-12-03T21:32:23.705Z,48.95
2022-12-03T21:37:25.512Z,51.50
2022-12-03T21:42:36.204Z,50.67
2022-12-03T21:47:39.120Z,52.88
2022-12-03T21:52:41.100Z,57.17
2022-12-03T21:57:42.863Z,52.07
2022-12-03T22:02:44.902Z,56.10
2022-12-03T22:07:46.719Z,60.57
2022-12-03T22:12:48.980Z,56.08
2022-12-03T22:17:50.808Z,50.40
2022-12-03T22:22:52.605Z,55.53
2022-12-03T22:27:54.332Z,57.70
2022-12-03T22:32:55.991Z,51.17
2022-12-03T22:37:58.259Z,52.53
2022-12-03T22:42:59.952Z,57.03
2022-12-03T22:48:02.825Z,54.42
2022-12-03T22:53:04.650Z,53.72
2022-12-03T22:58:07.184Z,57.25
2022-12-03T23:03:08.966Z,47.88
2022-12-03T23:08:13.511Z,50.80
2022-12-03T23:13:16.474Z,47.55
2022-12-03T23:23:22.498Z,54.35
2022-12-03T23:28:24.900Z,53.15
2022-12-03T23:33:27.531Z,48.47
2022-12-03T23:38:29.212Z,48.55
2022-12-03T23:43:30.957Z,48.00
2022-12-03T23:48:33.127Z,49.50
2022-12-03T23:53:35.818Z,50.42
2022-12-03T23:58:38.601Z,53.58
